Time;durP1;ratioP1;P1;durP2;ratioP2;P2;SDS_P1;SDS_P2;PMS_P1;PMS_P2;Temp;Humidity;BMP_temperature;BMP_pressure;BME280_temperature;BME280_humidity;BME280_pressure;Samples;Min_cycle;Max_cycle;Signal;HPM_P1;HPM_P2
2021/05/05 00:01:57;;;;;;;0.93;0.70;;;9.80;99.90;;;;;;5054162;28;20173;-60
2021/05/05 00:04:23;;;;;;;1.10;0.80;;;9.60;99.90;;;;;;5054132;28;20194;-60
2021/05/05 00:06:50;;;;;;;0.90;0.60;;;9.50;99.90;;;;;;5053673;28;20404;-60
2021/05/05 00:09:16;;;;;;;3.90;0.80;;;9.60;99.90;;;;;;5053664;28;20865;-60
2021/05/05 00:11:42;;;;;;;1.63;1.00;;;9.40;99.90;;;;;;5053609;28;20419;-60
2021/05/05 00:14:13;;;;;;;3.43;0.93;;;9.50;99.90;;;;;;5053367;28;20411;-60
2021/05/05 00:16:38;;;;;;;1.33;1.10;;;9.50;99.90;;;;;;5053673;28;20542;-60
2021/05/05 00:19:04;;;;;;;2.83;1.10;;;9.50;99.90;;;;;;5053514;28;20970;-60
2021/05/05 00:21:31;;;;;;;1.83;1.30;;;9.70;99.90;;;;;;5053606;28;20180;-60
2021/05/05 00:23:57;;;;;;;2.20;1.20;;;9.70;99.90;;;;;;5053722;28;20409;-60
2021/05/05 00:26:22;;;;;;;2.83;1.20;;;9.80;99.90;;;;;;5053187;28;20747;-60
2021/05/05 00:28:48;;;;;;;1.10;1.00;;;9.70;99.90;;;;;;5052975;28;20212;-59
2021/05/05 00:31:16;;;;;;;1.60;1.50;;;9.70;99.90;;;;;;5053777;28;20197;-60
2021/05/05 00:33:42;;;;;;;1.90;1.10;;;9.60;99.90;;;;;;5053427;28;20166;-59
2021/05/05 00:36:07;;;;;;;3.90;1.37;;;9.60;99.90;;;;;;5053309;28;20403;-60
2021/05/05 00:38:33;;;;;;;4.07;1.50;;;9.60;99.90;;;;;;5053822;28;20426;-60
2021/05/05 00:40:59;;;;;;;1.40;1.10;;;9.60;99.90;;;;;;5053507;28;20256;-59
2021/05/05 00:43:24;;;;;;;1.43;0.90;;;9.80;99.90;;;;;;5053093;28;20212;-60
2021/05/05 00:45:50;;;;;;;1.90;1.17;;;9.80;99.90;;;;;;5054059;28;20269;-60
2021/05/05 00:48:15;;;;;;;2.90;1.60;;;9.90;99.90;;;;;;5053003;28;20187;-60
2021/05/05 00:50:41;;;;;;;4.80;1.47;;;9.70;99.90;;;;;;5053251;28;20575;-60
2021/05/05 00:53:07;;;;;;;1.87;1.20;;;9.40;99.90;;;;;;5053139;28;20204;-60
2021/05/05 00:55:33;;;;;;;2.07;1.60;;;9.50;99.90;;;;;;5053907;28;20164;-58
2021/05/05 00:57:58;;;;;;;2.30;1.30;;;9.60;99.90;;;;;;5057081;28;20192;-59
2021/05/05 01:00:25;;;;;;;2.10;1.90;;;9.70;99.90;;;;;;5057530;28;20495;-59
2021/05/05 01:02:50;;;;;;;1.60;1.23;;;9.70;99.90;;;;;;5057750;28;20243;-59
2021/05/05 01:05:16;;;;;;;1.40;1.10;;;9.70;99.90;;;;;;5057565;28;20496;-59
2021/05/05 01:07:42;;;;;;;1.40;0.87;;;10.00;99.90;;;;;;5057198;28;20251;-60
2021/05/05 01:10:10;;;;;;;1.33;1.20;;;10.00;99.90;;;;;;5057526;28;20205;-60
2021/05/05 01:12:35;;;;;;;1.83;0.80;;;10.00;99.90;;;;;;5056618;28;20199;-60
2021/05/05 01:15:01;;;;;;;2.20;0.80;;;10.00;99.90;;;;;;5057255;28;20490;-60
2021/05/05 01:17:28;;;;;;;2.80;1.27;;;9.90;99.90;;;;;;5057142;28;20167;-60
2021/05/05 01:19:54;;;;;;;0.90;0.70;;;9.90;99.90;;;;;;5057124;28;20658;-60
2021/05/05 01:22:20;;;;;;;1.20;0.80;;;9.80;99.90;;;;;;5056845;28;20405;-59
2021/05/05 01:24:46;;;;;;;2.00;1.07;;;9.70;99.90;;;;;;5057018;28;20171;-60
2021/05/05 01:27:12;;;;;;;2.03;0.83;;;9.90;99.90;;;;;;5056781;28;20711;-60
2021/05/05 01:29:38;;;;;;;1.53;0.70;;;10.00;99.90;;;;;;5056034;28;20202;-60
2021/05/05 01:32:05;;;;;;;3.80;1.00;;;10.00;99.90;;;;;;5055971;28;20173;-60
2021/05/05 01:34:33;;;;;;;2.90;1.00;;;10.10;99.90;;;;;;5056636;28;20410;-60
2021/05/05 01:36:58;;;;;;;2.00;0.97;;;10.00;99.90;;;;;;5056532;28;20404;-60
2021/05/05 01:39:24;;;;;;;2.63;0.90;;;9.80;99.90;;;;;;5056390;28;20424;-60
2021/05/05 01:41:50;;;;;;;3.07;1.30;;;9.80;99.90;;;;;;5056860;28;20207;-60
2021/05/05 01:44:16;;;;;;;2.53;1.17;;;9.80;99.90;;;;;;5056208;28;20238;-60
2021/05/05 01:46:48;;;;;;;1.33;0.90;;;9.90;99.90;;;;;;5057007;28;20226;-60
2021/05/05 01:49:21;;;;;;;2.60;1.03;;;9.90;99.90;;;;;;5078157;28;20477;-60
2021/05/05 01:51:49;;;;;;;2.40;1.00;;;9.80;99.90;;;;;;5076389;28;20442;-58
2021/05/05 01:54:14;;;;;;;1.70;1.13;;;9.70;99.90;;;;;;5076424;28;20399;-61
2021/05/05 01:56:40;;;;;;;1.83;0.80;;;9.60;99.90;;;;;;5076541;28;20409;-61
2021/05/05 01:59:06;;;;;;;2.83;1.27;;;9.70;99.90;;;;;;5079265;22;20231;-57
2021/05/05 02:01:32;;;;;;;1.90;0.90;;;9.80;99.90;;;;;;5035894;28;20404;-55
2021/05/05 02:04:01;;;;;;;1.53;0.80;;;9.80;99.90;;;;;;5035947;28;20544;-55
2021/05/05 02:06:28;;;;;;;2.50;1.13;;;9.80;99.90;;;;;;5017447;28;20397;-54
2021/05/05 02:08:54;;;;;;;1.90;0.70;;;9.70;99.90;;;;;;5035617;28;20454;-57
2021/05/05 02:11:19;;;;;;;3.40;1.20;;;9.70;99.90;;;;;;5035651;28;20418;-56
2021/05/05 02:13:45;;;;;;;1.50;0.90;;;9.70;99.90;;;;;;5035673;28;20243;-58
2021/05/05 02:16:10;;;;;;;0.93;0.83;;;9.50;99.90;;;;;;5035552;28;20529;-56
2021/05/05 02:18:36;;;;;;;1.10;0.90;;;9.50;99.90;;;;;;5036146;28;20580;-57
2021/05/05 02:21:02;;;;;;;2.20;0.80;;;9.60;99.90;;;;;;5035513;28;20829;-57
2021/05/05 02:23:28;;;;;;;1.80;0.77;;;9.50;99.90;;;;;;5035775;28;20165;-56
2021/05/05 02:25:53;;;;;;;1.03;0.60;;;9.50;99.90;;;;;;5034479;28;20186;-55
2021/05/05 02:28:19;;;;;;;2.93;1.10;;;9.50;99.90;;;;;;5025541;28;20672;-58
2021/05/05 02:30:45;;;;;;;2.10;1.00;;;9.70;99.90;;;;;;5024241;28;20172;-58
2021/05/05 02:33:11;;;;;;;1.53;1.10;;;9.60;99.90;;;;;;5035357;28;20486;-59
2021/05/05 02:35:36;;;;;;;1.90;1.10;;;9.60;99.90;;;;;;5035493;28;20183;-57
2021/05/05 02:38:02;;;;;;;1.30;1.20;;;9.60;99.90;;;;;;5035395;28;20910;-55
2021/05/05 02:40:28;;;;;;;2.77;0.90;;;9.40;99.90;;;;;;5035469;28;20563;-58
2021/05/05 02:42:54;;;;;;;1.10;0.80;;;9.50;99.90;;;;;;5035192;28;20403;-57
2021/05/05 02:45:20;;;;;;;1.57;1.07;;;9.40;99.90;;;;;;5035083;28;20176;-57
2021/05/05 02:47:46;;;;;;;2.80;1.17;;;9.30;99.90;;;;;;5035095;28;20431;-56
2021/05/05 02:50:11;;;;;;;2.30;1.13;;;9.10;99.90;;;;;;5034889;28;20199;-57
2021/05/05 02:52:37;;;;;;;1.97;1.40;;;9.30;99.90;;;;;;5034993;28;20215;-54
2021/05/05 02:55:03;;;;;;;2.90;1.47;;;9.30;99.90;;;;;;5034917;28;20588;-54
2021/05/05 02:57:29;;;;;;;2.37;0.90;;;9.40;99.90;;;;;;5035663;28;20203;-57
2021/05/05 02:59:55;;;;;;;1.10;1.00;;;9.30;99.90;;;;;;5034740;28;20474;-57
2021/05/05 03:02:21;;;;;;;2.30;1.07;;;9.30;99.90;;;;;;5034463;28;20413;-56
2021/05/05 03:04:46;;;;;;;1.50;0.90;;;9.40;99.90;;;;;;5035000;28;20177;-58
2021/05/05 03:07:12;;;;;;;2.77;1.07;;;9.50;99.90;;;;;;5034646;28;20228;-56
2021/05/05 03:09:37;;;;;;;2.33;0.97;;;9.30;99.90;;;;;;5034529;28;20256;-54
2021/05/05 03:12:04;;;;;;;2.30;1.40;;;9.40;99.90;;;;;;5034803;28;20219;-57
2021/05/05 03:14:30;;;;;;;3.43;1.27;;;9.30;99.90;;;;;;5034580;28;20173;-57
2021/05/05 03:16:57;;;;;;;2.43;1.70;;;9.20;99.90;;;;;;5034127;28;20431;-57
2021/05/05 03:19:23;;;;;;;2.37;1.40;;;9.30;99.90;;;;;;5033993;28;20221;-57
2021/05/05 03:21:49;;;;;;;2.07;1.13;;;9.40;99.90;;;;;;5034789;28;20492;-57
2021/05/05 03:24:15;;;;;;;2.50;1.03;;;9.30;99.90;;;;;;5034374;28;20454;-54
2021/05/05 03:26:40;;;;;;;3.93;1.37;;;9.20;99.90;;;;;;5034574;28;20173;-58
2021/05/05 03:29:07;;;;;;;3.70;1.20;;;9.30;99.90;;;;;;5033865;28;20211;-57
2021/05/05 03:31:34;;;;;;;4.60;1.20;;;9.40;99.90;;;;;;5033866;28;20177;-57
2021/05/05 03:34:01;;;;;;;2.33;0.90;;;9.30;99.90;;;;;;5034196;28;20439;-58
2021/05/05 03:36:27;;;;;;;1.57;1.13;;;9.30;99.90;;;;;;5034118;28;20394;-58
2021/05/05 03:38:52;;;;;;;1.50;1.00;;;9.30;99.90;;;;;;5034053;28;20439;-56
2021/05/05 03:41:18;;;;;;;2.83;1.07;;;9.40;99.90;;;;;;5034345;28;20175;-58
2021/05/05 03:43:43;;;;;;;1.83;0.97;;;9.30;99.90;;;;;;5033793;28;20717;-57
2021/05/05 03:46:09;;;;;;;4.00;1.17;;;9.20;99.90;;;;;;5033608;28;20198;-58
2021/05/05 03:48:35;;;;;;;1.77;1.00;;;9.20;99.90;;;;;;5033940;28;20537;-58
2021/05/05 03:51:03;;;;;;;1.77;1.07;;;9.20;99.90;;;;;;5033887;28;20216;-58
2021/05/05 03:53:28;;;;;;;2.40;0.90;;;9.30;99.90;;;;;;5034025;28;20263;-58
2021/05/05 03:55:54;;;;;;;1.70;1.30;;;9.40;99.90;;;;;;5036122;28;20494;-57
2021/05/05 03:58:19;;;;;;;4.80;1.10;;;9.60;99.90;;;;;;5033659;28;20207;-58
2021/05/05 04:00:45;;;;;;;2.80;0.80;;;9.60;99.90;;;;;;5033495;28;20586;-57
2021/05/05 04:03:11;;;;;;;2.40;1.03;;;9.50;99.90;;;;;;5033606;28;20175;-58
2021/05/05 04:05:37;;;;;;;1.67;0.77;;;9.30;99.90;;;;;;5033691;28;20179;-56
2021/05/05 04:08:03;;;;;;;1.50;0.90;;;9.20;99.90;;;;;;5033497;28;20233;-58
2021/05/05 04:10:28;;;;;;;0.90;0.73;;;9.20;99.90;;;;;;5033710;28;20456;-58
2021/05/05 04:12:54;;;;;;;1.17;0.77;;;9.40;99.90;;;;;;5033493;28;20499;-55
2021/05/05 04:15:20;;;;;;;1.70;1.10;;;9.50;99.90;;;;;;5033341;28;20571;-57
2021/05/05 04:17:45;;;;;;;2.47;1.20;;;9.40;99.90;;;;;;5033178;28;20181;-55
2021/05/05 04:20:12;;;;;;;3.00;0.70;;;9.30;99.90;;;;;;5033636;28;20220;-56
2021/05/05 04:22:38;;;;;;;0.90;0.70;;;8.90;99.90;;;;;;5033612;28;20177;-57
2021/05/05 04:25:04;;;;;;;1.63;0.80;;;9.00;99.90;;;;;;5033581;28;20417;-57
2021/05/05 04:27:30;;;;;;;1.87;0.70;;;9.20;99.90;;;;;;5033654;28;20173;-57
2021/05/05 04:29:56;;;;;;;1.73;1.00;;;9.10;99.90;;;;;;5032746;28;20461;-56
2021/05/05 04:32:22;;;;;;;3.10;1.00;;;9.30;99.90;;;;;;5033119;28;20402;-56
2021/05/05 04:34:48;;;;;;;1.67;0.90;;;9.20;99.90;;;;;;5033251;28;20200;-57
2021/05/05 04:37:13;;;;;;;4.40;0.87;;;9.30;99.90;;;;;;5033479;28;20477;-55
2021/05/05 04:39:39;;;;;;;1.73;1.00;;;9.30;99.90;;;;;;5033306;28;20202;-57
2021/05/05 04:42:07;;;;;;;1.30;0.80;;;9.40;99.90;;;;;;5033404;28;20177;-57
2021/05/05 04:44:33;;;;;;;1.80;0.80;;;9.20;99.90;;;;;;5033007;28;20179;-56
2021/05/05 04:46:59;;;;;;;1.00;0.80;;;9.30;99.90;;;;;;5032959;28;20495;-58
2021/05/05 04:49:24;;;;;;;1.60;0.70;;;9.50;99.90;;;;;;5033002;28;20471;-58
2021/05/05 04:51:50;;;;;;;2.50;0.87;;;9.40;99.90;;;;;;5032974;28;20218;-59
2021/05/05 04:54:15;;;;;;;0.90;0.70;;;9.30;99.90;;;;;;5033351;28;20211;-57
2021/05/05 04:56:41;;;;;;;1.10;0.70;;;9.30;99.90;;;;;;5033385;28;20263;-58
2021/05/05 04:59:07;;;;;;;1.00;0.80;;;9.30;99.90;;;;;;5032662;28;20598;-58
2021/05/05 05:01:33;;;;;;;1.00;0.60;;;9.20;99.90;;;;;;5032281;28;20518;-57
2021/05/05 05:03:58;;;;;;;0.90;0.70;;;9.20;99.90;;;;;;5032965;28;20174;-58
2021/05/05 05:06:24;;;;;;;0.90;0.70;;;9.10;99.90;;;;;;5032804;28;20196;-59
2021/05/05 05:08:49;;;;;;;3.80;0.80;;;9.20;99.90;;;;;;5032941;28;20199;-58
2021/05/05 05:11:15;;;;;;;1.90;0.77;;;9.10;99.90;;;;;;5032979;28;20504;-55
2021/05/05 05:13:41;;;;;;;0.77;0.50;;;9.10;99.90;;;;;;5032821;28;20247;-56
2021/05/05 05:16:07;;;;;;;1.13;0.70;;;9.20;99.90;;;;;;5032466;28;20496;-59
2021/05/05 05:18:33;;;;;;;0.80;0.70;;;9.10;99.90;;;;;;5031220;28;20198;-56
2021/05/05 05:20:59;;;;;;;1.23;0.70;;;9.30;99.90;;;;;;5024493;28;20187;-57
2021/05/05 05:23:25;;;;;;;1.97;0.63;;;9.40;99.90;;;;;;5012905;28;20427;-57
2021/05/05 05:25:51;;;;;;;1.30;0.80;;;9.20;99.90;;;;;;5013146;28;20421;-55
2021/05/05 05:28:16;;;;;;;1.30;0.90;;;9.40;99.90;;;;;;5013142;28;20204;-58
2021/05/05 05:30:42;;;;;;;0.83;0.60;;;9.40;99.90;;;;;;5021049;28;20666;-58
2021/05/05 05:33:08;;;;;;;2.40;1.00;;;9.40;99.90;;;;;;5032350;28;20650;-58
2021/05/05 05:35:33;;;;;;;1.37;0.80;;;9.50;99.90;;;;;;5032843;28;20177;-56
2021/05/05 05:37:59;;;;;;;0.90;0.80;;;9.60;99.90;;;;;;5032959;28;20177;-58
2021/05/05 05:40:24;;;;;;;1.37;0.87;;;9.70;99.90;;;;;;5032691;28;20222;-58
2021/05/05 05:42:50;;;;;;;1.20;0.83;;;9.90;99.90;;;;;;5034282;28;20176;-56
2021/05/05 05:45:18;;;;;;;2.97;1.00;;;9.80;99.90;;;;;;5016714;28;20188;-58
2021/05/05 05:47:44;;;;;;;1.30;0.80;;;9.80;99.90;;;;;;5016547;28;20186;-54
2021/05/05 05:50:11;;;;;;;3.70;1.10;;;9.90;99.90;;;;;;5016276;28;20458;-58
2021/05/05 05:52:37;;;;;;;1.10;0.83;;;10.00;99.90;;;;;;5016028;28;20432;-54
2021/05/05 05:55:05;;;;;;;2.97;1.00;;;10.00;99.90;;;;;;5016263;28;20411;-56
2021/05/05 05:57:31;;;;;;;2.77;1.30;;;9.90;99.90;;;;;;5015934;28;20169;-58
2021/05/05 05:59:56;;;;;;;10.20;1.87;;;9.80;99.90;;;;;;5015870;28;20500;-58
2021/05/05 06:02:22;;;;;;;5.63;2.70;;;9.60;99.90;;;;;;5015865;28;20214;-58
2021/05/05 06:04:47;;;;;;;2.63;1.70;;;9.70;99.90;;;;;;5030654;28;20187;-57
2021/05/05 06:07:13;;;;;;;2.73;1.50;;;9.70;99.90;;;;;;5035826;28;20659;-58
2021/05/05 06:09:39;;;;;;;2.30;1.40;;;9.70;99.90;;;;;;5035733;28;20206;-57
2021/05/05 06:12:05;;;;;;;3.23;1.63;;;9.80;99.90;;;;;;5035946;28;20180;-58
2021/05/05 06:14:31;;;;;;;3.63;1.67;;;9.80;99.90;;;;;;5035251;28;20164;-58
2021/05/05 06:16:57;;;;;;;2.97;2.30;;;9.90;99.90;;;;;;5035607;28;20788;-56
2021/05/05 06:19:22;;;;;;;5.13;3.73;;;9.90;99.90;;;;;;5035428;28;20280;-58
2021/05/05 06:21:48;;;;;;;4.30;3.23;;;9.80;99.90;;;;;;5035622;28;20169;-58
2021/05/05 06:24:13;;;;;;;6.10;4.27;;;9.50;99.90;;;;;;5035401;28;20178;-58
2021/05/05 06:26:39;;;;;;;4.43;3.40;;;9.30;99.90;;;;;;5035514;28;20196;-56
2021/05/05 06:29:05;;;;;;;7.47;5.57;;;9.50;99.90;;;;;;5035485;28;20209;-58
2021/05/05 06:31:30;;;;;;;7.83;5.13;;;9.40;99.90;;;;;;5035769;28;20171;-58
2021/05/05 06:33:56;;;;;;;7.80;4.80;;;9.30;99.90;;;;;;5034388;28;20523;-57
2021/05/05 06:36:22;;;;;;;6.40;5.07;;;9.20;99.90;;;;;;5034846;28;20168;-58
2021/05/05 06:38:48;;;;;;;2.63;2.30;;;9.50;99.90;;;;;;5035104;28;20200;-58
2021/05/05 06:41:13;;;;;;;2.80;2.17;;;9.70;99.90;;;;;;5035465;28;20178;-58
2021/05/05 06:43:39;;;;;;;1.70;1.30;;;9.80;99.90;;;;;;5035400;28;20424;-58
2021/05/05 06:46:04;;;;;;;4.93;1.90;;;9.90;99.90;;;;;;5035384;28;20179;-58
2021/05/05 06:48:30;;;;;;;4.10;1.90;;;10.20;99.90;;;;;;5034759;28;20197;-56
2021/05/05 06:50:56;;;;;;;5.53;1.90;;;10.20;99.90;;;;;;5034675;28;20270;-56
2021/05/05 06:53:21;;;;;;;3.40;2.63;;;10.20;99.90;;;;;;5034744;28;20179;-57
2021/05/05 06:55:47;;;;;;;3.53;1.50;;;10.20;99.90;;;;;;5035153;28;20210;-58
2021/05/05 06:58:13;;;;;;;6.37;2.20;;;10.10;99.90;;;;;;5034289;28;20206;-57
2021/05/05 07:00:39;;;;;;;2.40;1.53;;;9.90;99.90;;;;;;5034551;28;20674;-57
2021/05/05 07:03:04;;;;;;;6.90;2.57;;;10.00;99.90;;;;;;5026983;28;20181;-57
2021/05/05 07:05:30;;;;;;;3.73;2.20;;;10.30;99.90;;;;;;5030772;28;20180;-59
2021/05/05 07:07:56;;;;;;;3.87;1.63;;;10.00;99.90;;;;;;5034916;28;20171;-58
2021/05/05 07:10:21;;;;;;;5.00;2.33;;;10.10;99.90;;;;;;5034588;28;20201;-58
2021/05/05 07:12:47;;;;;;;5.37;1.93;;;10.20;99.90;;;;;;5034826;28;20175;-57
2021/05/05 07:15:13;;;;;;;3.30;1.80;;;10.20;99.90;;;;;;5034294;28;20171;-57
2021/05/05 07:17:39;;;;;;;3.57;2.20;;;10.20;99.90;;;;;;5033855;28;20178;-58
2021/05/05 07:20:06;;;;;;;4.80;2.00;;;10.00;99.90;;;;;;5034060;28;20429;-58
2021/05/05 07:22:31;;;;;;;5.23;2.30;;;10.00;99.90;;;;;;5034375;28;20197;-57
2021/05/05 07:24:57;;;;;;;3.70;1.80;;;10.10;99.90;;;;;;5034309;28;20405;-59
2021/05/05 07:27:22;;;;;;;4.40;2.03;;;10.30;99.90;;;;;;5034581;28;20209;-60
2021/05/05 07:29:48;;;;;;;4.37;1.90;;;10.50;99.90;;;;;;5034295;28;20199;-58
2021/05/05 07:32:14;;;;;;;3.93;1.70;;;10.50;99.90;;;;;;5016454;28;20171;-58
2021/05/05 07:34:41;;;;;;;7.97;2.57;;;10.40;99.90;;;;;;5033837;28;20174;-57
2021/05/05 07:37:11;;;;;;;5.53;1.83;;;10.20;99.90;;;;;;5034213;28;20414;-59
2021/05/05 07:45:14;;;;;;;1.93;1.60;;;9.70;99.90;;;;;;5000733;28;20414;-58
2021/05/05 07:47:52;;;;;;;3.87;1.80;;;9.80;99.90;;;;;;5034497;28;20394;-57
2021/05/05 07:50:18;;;;;;;3.93;2.23;;;10.10;99.90;;;;;;5034250;28;20472;-58
2021/05/05 07:52:45;;;;;;;1.93;1.53;;;10.30;99.90;;;;;;5016153;28;20409;-59
2021/05/05 07:55:11;;;;;;;6.90;1.90;;;10.50;99.90;;;;;;5036557;28;20177;-57
2021/05/05 07:57:39;;;;;;;4.97;2.33;;;10.70;99.90;;;;;;5033846;28;20419;-56
2021/05/05 08:00:06;;;;;;;3.63;1.70;;;10.80;99.90;;;;;;5044284;23;20515;-58
2021/05/05 08:02:31;;;;;;;6.83;1.80;;;10.70;99.90;;;;;;5014906;28;20777;-54
2021/05/05 08:04:57;;;;;;;4.10;2.90;;;10.60;99.90;;;;;;5003493;28;20429;-59
2021/05/05 08:07:23;;;;;;;9.47;2.20;;;10.40;99.90;;;;;;5024960;28;20179;-58
2021/05/05 08:09:49;;;;;;;2.67;1.33;;;10.30;99.90;;;;;;5025278;28;20213;-57
2021/05/05 08:12:15;;;;;;;3.27;2.07;;;10.10;99.90;;;;;;5018786;28;20419;-57
2021/05/05 08:14:42;;;;;;;2.40;1.50;;;10.30;99.90;;;;;;5015233;28;20198;-58
2021/05/05 08:17:08;;;;;;;4.67;1.93;;;10.50;99.80;;;;;;5023757;28;20395;-57
2021/05/05 08:19:34;;;;;;;4.93;1.80;;;10.90;99.90;;;;;;5025657;28;20923;-59
2021/05/05 08:22:00;;;;;;;4.80;1.80;;;10.80;99.00;;;;;;5021049;28;20409;-59
2021/05/05 08:24:28;;;;;;;4.00;2.00;;;10.60;99.20;;;;;;5013973;28;20703;-60
2021/05/05 08:26:57;;;;;;;5.60;2.20;;;10.50;99.10;;;;;;4996382;28;20540;-59
2021/05/05 08:29:26;;;;;;;4.60;2.07;;;10.60;99.50;;;;;;5013516;28;20459;-60
2021/05/05 08:31:56;;;;;;;6.00;2.17;;;10.70;99.90;;;;;;5014199;28;20407;-59
2021/05/05 08:34:22;;;;;;;5.43;2.23;;;10.50;99.90;;;;;;5013983;28;20409;-61
2021/05/05 08:36:47;;;;;;;3.83;1.90;;;10.30;99.00;;;;;;4996569;28;20406;-60
2021/05/05 08:39:13;;;;;;;8.90;2.83;;;10.50;99.90;;;;;;5013766;28;20957;-58
2021/05/05 08:41:39;;;;;;;3.10;1.90;;;10.70;99.90;;;;;;5004657;28;20182;-59
2021/05/05 08:44:10;;;;;;;6.93;2.10;;;10.80;99.90;;;;;;5010248;28;20414;-59
2021/05/05 08:46:38;;;;;;;4.80;1.73;;;10.90;99.30;;;;;;5013549;28;20180;-59
2021/05/05 08:49:04;;;;;;;4.30;1.80;;;11.20;99.70;;;;;;4995746;28;20483;-59
2021/05/05 08:51:29;;;;;;;5.50;2.30;;;11.50;98.80;;;;;;5013381;28;20911;-58
2021/05/05 08:53:55;;;;;;;4.30;1.63;;;11.60;99.70;;;;;;5012588;28;20179;-58
2021/05/05 08:56:21;;;;;;;2.93;2.10;;;11.60;98.30;;;;;;5013848;28;20399;-59
2021/05/05 08:58:46;;;;;;;3.87;1.77;;;11.70;98.20;;;;;;5013712;28;20200;-59
2021/05/05 09:01:12;;;;;;;7.33;1.80;;;11.50;96.60;;;;;;5014187;28;20160;-59
2021/05/05 09:03:40;;;;;;;5.47;1.50;;;11.70;97.30;;;;;;5013168;28;20169;-58
2021/05/05 09:06:06;;;;;;;2.83;1.80;;;11.90;96.80;;;;;;5013245;28;20186;-59
2021/05/05 09:08:33;;;;;;;4.50;1.83;;;12.00;95.70;;;;;;5013281;28;21003;-58
2021/05/05 09:11:07;;;;;;;3.23;1.50;;;12.10;96.40;;;;;;5013667;28;20246;-59
2021/05/05 09:13:43;;;;;;;2.10;1.60;;;11.70;95.10;;;;;;5013640;28;20383;-56
2021/05/05 09:16:10;;;;;;;5.57;2.33;;;11.50;95.00;;;;;;5014497;28;20828;-58
2021/05/05 09:18:58;;;;;;;3.00;1.47;;;11.50;94.70;;;;;;5017216;28;20423;-60
2021/05/05 09:21:31;;;;;;;2.43;1.93;;;11.70;95.20;;;;;;5016930;28;20472;-59
2021/05/05 09:24:34;;;;;;;4.13;1.80;;;12.20;96.00;;;;;;5017486;28;20391;-59
2021/05/05 09:27:09;;;;;;;5.93;2.17;;;12.30;93.80;;;;;;4937347;29;20462;-59
2021/05/05 09:29:49;;;;;;;4.00;2.10;;;12.20;92.60;;;;;;4996150;28;20470;-58
2021/05/05 09:32:20;;;;;;;4.40;1.70;;;12.00;93.20;;;;;;5007224;28;20476;-59
2021/05/05 09:34:59;;;;;;;4.03;1.50;;;11.90;92.40;;;;;;5009142;28;20422;-59
2021/05/05 09:37:25;;;;;;;2.40;1.50;;;11.70;91.30;;;;;;5016896;28;20477;-58
2021/05/05 09:40:00;;;;;;;1.67;1.57;;;11.80;91.80;;;;;;5016893;28;20430;-60
2021/05/05 09:42:31;;;;;;;2.60;1.60;;;11.70;90.50;;;;;;5016817;28;20416;-60
2021/05/05 09:45:02;;;;;;;6.50;1.67;;;11.80;88.60;;;;;;5016635;28;20409;-60
2021/05/05 09:47:47;;;;;;;4.80;1.90;;;11.80;85.90;;;;;;5017398;28;20443;-58
2021/05/05 09:50:36;;;;;;;6.60;1.93;;;12.00;90.80;;;;;;5035016;28;20491;-60
2021/05/05 09:53:18;;;;;;;4.80;1.83;;;12.30;90.20;;;;;;5036373;28;20390;-60
2021/05/05 09:55:47;;;;;;;5.93;1.90;;;12.60;89.80;;;;;;5036365;28;20466;-61
2021/05/05 09:58:26;;;;;;;4.30;1.80;;;12.70;92.50;;;;;;5036077;28;20892;-60
2021/05/05 10:03:42;;;;;;;3.57;1.40;;;12.30;90.70;;;;;;5036469;28;20489;-60
2021/05/05 10:06:37;;;;;;;2.80;1.60;;;12.30;91.60;;;;;;4996443;28;20924;-59
2021/05/05 10:09:07;;;;;;;3.27;1.43;;;12.50;90.60;;;;;;4996960;28;20825;-60
2021/05/05 10:11:35;;;;;;;5.63;1.73;;;12.60;90.20;;;;;;4997351;28;20404;-59
2021/05/05 10:14:12;;;;;;;5.13;1.87;;;12.80;88.10;;;;;;4996971;28;20778;-57
2021/05/05 10:16:40;;;;;;;5.63;1.60;;;12.80;84.70;;;;;;4997062;28;20478;-59
2021/05/05 10:19:08;;;;;;;3.63;1.50;;;12.90;84.50;;;;;;4996731;28;20836;-58
2021/05/05 10:21:39;;;;;;;2.00;1.00;;;12.80;81.20;;;;;;4995795;28;20424;-59
2021/05/05 10:24:07;;;;;;;3.03;1.77;;;13.00;84.80;;;;;;4996801;28;20802;-58
2021/05/05 10:26:33;;;;;;;1.90;1.30;;;13.40;87.30;;;;;;4995211;28;20503;-58
2021/05/05 10:28:59;;;;;;;3.70;1.60;;;13.70;83.40;;;;;;4995587;28;20543;-58
2021/05/05 10:31:28;;;;;;;2.77;1.60;;;13.80;83.50;;;;;;4996470;28;20197;-57
2021/05/05 10:33:58;;;;;;;3.83;2.07;;;13.90;82.10;;;;;;4999249;28;20835;-58
2021/05/05 10:36:38;;;;;;;3.60;1.40;;;13.70;80.20;;;;;;5015930;28;20410;-60
2021/05/05 10:39:18;;;;;;;2.83;1.40;;;13.50;82.40;;;;;;5015631;28;20434;-59
2021/05/05 10:41:59;;;;;;;3.33;1.83;;;13.60;83.60;;;;;;4998295;28;20950;-59
2021/05/05 10:44:38;;;;;;;3.87;1.40;;;14.00;82.40;;;;;;5015313;28;20466;-58
2021/05/05 10:47:22;;;;;;;5.37;1.50;;;13.80;80.10;;;;;;5015520;28;20413;-59
2021/05/05 10:50:04;;;;;;;5.90;1.80;;;13.50;82.00;;;;;;4997600;28;20494;-58
2021/05/05 10:52:54;;;;;;;2.87;1.10;;;13.20;82.00;;;;;;5015832;28;20408;-59
2021/05/05 10:55:40;;;;;;;3.30;1.10;;;12.70;86.80;;;;;;5015508;28;20399;-59
2021/05/05 10:58:26;;;;;;;1.67;0.80;;;11.10;96.20;;;;;;4999948;28;20420;-58
2021/05/05 11:00:54;;;;;;;2.10;0.73;;;9.40;99.90;;;;;;5004414;28;20449;-57
2021/05/05 11:03:41;;;;;;;1.33;1.03;;;8.40;99.90;;;;;;4994244;28;20418;-58
2021/05/05 11:06:28;;;;;;;2.63;1.70;;;7.70;99.90;;;;;;5003056;28;20425;-58
2021/05/05 11:08:54;;;;;;;1.50;1.40;;;7.60;99.90;;;;;;4994614;28;20459;-57
2021/05/05 11:11:43;;;;;;;1.77;1.03;;;7.40;99.90;;;;;;4993972;28;20474;-57
2021/05/05 11:14:09;;;;;;;1.97;1.40;;;7.40;99.90;;;;;;4993965;28;20191;-56
2021/05/05 11:16:55;;;;;;;1.60;1.17;;;7.50;99.90;;;;;;4993976;28;20416;-59
2021/05/05 11:19:37;;;;;;;1.10;0.80;;;7.80;99.90;;;;;;4980716;28;20501;-59
2021/05/05 11:22:33;;;;;;;0.87;0.87;;;7.90;99.90;;;;;;4977912;28;20415;-59
2021/05/05 11:25:17;;;;;;;1.40;1.00;;;7.90;99.90;;;;;;4995074;28;20416;-60
2021/05/05 11:27:48;;;;;;;1.40;1.03;;;8.50;99.90;;;;;;4995540;28;20393;-59
2021/05/05 11:30:37;;;;;;;1.87;1.20;;;9.20;99.90;;;;;;4994525;28;20480;-60
2021/05/05 11:33:03;;;;;;;2.63;0.90;;;10.30;99.90;;;;;;4994922;28;20393;-60
2021/05/05 11:35:30;;;;;;;1.67;1.13;;;11.50;99.90;;;;;;5009078;28;20424;-59
2021/05/05 11:38:07;;;;;;;2.60;1.20;;;12.60;99.90;;;;;;5014184;28;20227;-59
2021/05/05 11:40:33;;;;;;;1.30;0.83;;;12.60;99.90;;;;;;5013616;28;20438;-59
2021/05/05 11:42:59;;;;;;;1.43;0.70;;;13.40;99.90;;;;;;4996766;28;20427;-57
2021/05/05 11:45:25;;;;;;;4.90;1.30;;;12.90;99.90;;;;;;5014507;28;20413;-60
2021/05/05 11:47:50;;;;;;;2.13;1.03;;;12.70;99.90;;;;;;5014321;28;20168;-60
2021/05/05 11:50:22;;;;;;;1.60;0.93;;;11.80;99.90;;;;;;5013794;28;20669;-59
2021/05/05 11:52:54;;;;;;;1.53;1.10;;;13.30;99.90;;;;;;5019984;28;20160;-58
2021/05/05 11:55:23;;;;;;;1.90;1.50;;;14.40;99.90;;;;;;5033876;28;20410;-59
2021/05/05 11:57:54;;;;;;;1.30;1.00;;;15.70;98.30;;;;;;5034404;28;20406;-59
2021/05/05 12:00:21;;;;;;;2.07;0.97;;;15.80;95.70;;;;;;5033852;28;20526;-60
2021/05/05 12:02:49;;;;;;;1.20;1.10;;;14.00;97.90;;;;;;5034186;28;20419;-60
2021/05/05 12:05:25;;;;;;;3.00;1.13;;;13.10;99.90;;;;;;5028403;28;20417;-60
2021/05/05 12:08:10;;;;;;;1.77;1.10;;;12.50;99.50;;;;;;5014688;28;20414;-58
2021/05/05 12:10:48;;;;;;;1.90;1.17;;;12.40;99.30;;;;;;5014140;28;20451;-58
2021/05/05 12:13:19;;;;;;;1.40;1.10;;;12.50;99.90;;;;;;5014307;28;20386;-57
2021/05/05 12:15:55;;;;;;;1.90;1.00;;;14.10;98.70;;;;;;5014407;28;20389;-58
2021/05/05 12:18:28;;;;;;;2.27;1.33;;;15.80;97.70;;;;;;5017659;28;20398;-59
2021/05/05 12:21:07;;;;;;;3.50;1.20;;;16.70;93.80;;;;;;5014069;28;20407;-59
2021/05/05 12:23:46;;;;;;;1.67;1.30;;;17.40;90.70;;;;;;5016698;28;20492;-55
2021/05/05 12:26:20;;;;;;;1.50;1.30;;;18.20;90.00;;;;;;5012069;28;20407;-58
2021/05/05 12:28:50;;;;;;;2.83;1.40;;;17.00;86.50;;;;;;5017391;28;20429;-58
2021/05/05 12:31:18;;;;;;;1.90;1.00;;;16.60;89.60;;;;;;5013755;28;20477;-59
2021/05/05 12:33:46;;;;;;;2.60;1.30;;;15.60;91.10;;;;;;5013545;28;20981;-59
2021/05/05 12:36:19;;;;;;;2.37;1.20;;;14.90;92.60;;;;;;5013036;28;20411;-59
2021/05/05 12:38:50;;;;;;;3.13;1.20;;;14.70;92.10;;;;;;5013773;28;20434;-60
2021/05/05 12:41:23;;;;;;;2.37;1.60;;;14.20;93.40;;;;;;5013590;28;20388;-59
2021/05/05 12:43:57;;;;;;;2.00;1.10;;;13.20;94.30;;;;;;5014422;28;20915;-56
2021/05/05 12:47:06;;;;;;;1.40;1.20;;;12.80;95.40;;;;;;5013619;28;20548;-60
2021/05/05 12:49:37;;;;;;;1.30;1.20;;;;;;;;;;4995390;28;20462;-60
2021/05/05 12:52:04;;;;;;;1.70;1.20;;;;;;;;;;5012966;28;20409;-60
2021/05/05 12:54:32;;;;;;;1.17;1.07;;;;;;;;;;5013420;28;20771;-60
2021/05/05 12:56:59;;;;;;;1.50;1.30;;;;;;;;;;5013293;28;20461;-60
2021/05/05 12:59:25;;;;;;;1.10;1.00;;;;;;;;;;5013111;28;20798;-59
2021/05/05 13:02:05;;;;;;;1.20;1.00;;;;;;;;;;5013161;28;20466;-56
2021/05/05 13:04:34;;;;;;;1.37;1.10;;;;;;;;;;5013228;28;20410;-59
2021/05/05 13:07:00;;;;;;;2.17;1.97;;;;;;;;;;5012703;28;20415;-60
2021/05/05 13:09:26;;;;;;;1.03;0.80;;;17.50;93.20;;;;;;5013275;28;20450;-60
2021/05/05 13:15:07;;;;;;;2.60;2.20;;;19.80;79.10;;;;;;5013520;28;20247;-58